KSPS/SPS METAR and TAF weather

Enter ICAO airport designator
Station Type Date Time Source
KSPS METAR 2019/12/14 18:52 UTC NOAA

KSPS 141852Z AUTO 08011KT 10SM CLR 14/02 A2984 RMK AO2 SLP101 T01440017


Station Type Date Time Source
KSPS Decoded METAR 2019/12/14 18:52 UTC NOAA

WICHITA FALLS SHEPPARD AFB, TX, United States (KSPS) 33-59N 98-30W 308M
Dec 14, 2019 - 01:52 PM EST / 2019.12.14 1852 UTC
Wind: from the E (080 degrees) at 13 MPH (11 KT):0
Visibility: 10 mile(s):0
Sky conditions: clear
Temperature: 57.9 F (14.4 C)
Dew Point: 35.1 F (1.7 C)
Relative Humidity: 42%
Pressure (altimeter): 29.84 in. Hg (1010 hPa)
ob: KSPS 141852Z AUTO 08011KT 10SM CLR 14/02 A2984 RMK AO2 SLP101 T01440017
cycle: 19

Station Type Date Time Source
KSPS TAF 2019/12/14 18:54 UTC NOAA

TAF KSPS 141751Z 1418/1518 08008KT P6SM SCT150
FM151200 12008KT 5SM BR SCT015 BKN120

Example: see airport list